Arctic Village, Alaska
Current Conditions -  °F | °C
As of 12:16 AM on Friday 31 Oct 2014 (Local Time) from PFYU Reporting Station
Clear Clear  
Wind Chill:   Ceiling: Unl
Heat Index: 18°   Visibility: 10mi
Dew Point: 12°   Wind: 15mph
Humidity: 79%   Direction: 40°NE
Pressure: 29.66"   Gusts: 20mph
Location:  68.13°N, 145.54°W
Report Text: PFYU 310816Z 04013G17KT 10SM CLR M08/M11 A2966 RMK AO1
Loading
Personal Weather Stations






























Interactive Weather Map
Tropical Storm Tracking
New forecast layout! Learn more

10-Day Weather Forecast

Advertisements
Track Severe Weather on mobile